Time;durP1;ratioP1;P1;durP2;ratioP2;P2;SDS_P1;SDS_P2;PMS_P1;PMS_P2;Temp;Humidity;BMP_temperature;BMP_pressure;BME280_temperature;BME280_humidity;BME280_pressure;Samples;Min_cycle;Max_cycle;Signal;HPM_P1;HPM_P2
2023/07/25 00:00:40;;;;;;;6.88;2.15;;;16.50;99.90;;;;;;5117948;27;20138;-66
2023/07/25 00:03:07;;;;;;;3.53;2.30;;;16.40;99.90;;;;;;5115928;27;20491;-66
2023/07/25 00:05:34;;;;;;;4.50;2.63;;;16.50;99.90;;;;;;5134926;27;20046;-66
2023/07/25 00:08:02;;;;;;;4.85;2.35;;;16.50;99.90;;;;;;5133437;27;20051;-66
2023/07/25 00:10:29;;;;;;;4.07;2.70;;;16.50;99.90;;;;;;5135064;27;20118;-65
2023/07/25 00:12:56;;;;;;;4.90;2.08;;;16.50;99.90;;;;;;5127156;27;20048;-65
2023/07/25 00:15:22;;;;;;;4.35;2.22;;;16.40;99.90;;;;;;5135030;27;20027;-65
2023/07/25 00:17:49;;;;;;;5.63;2.30;;;16.30;99.90;;;;;;5134285;27;20039;-65
2023/07/25 00:20:16;;;;;;;4.20;2.45;;;16.30;99.90;;;;;;5116473;27;20060;-66
2023/07/25 00:22:43;;;;;;;5.75;2.55;;;16.20;99.90;;;;;;5115134;27;20035;-66
2023/07/25 00:25:10;;;;;;;5.70;2.40;;;16.20;99.90;;;;;;5132256;27;20506;-66
2023/07/25 00:27:37;;;;;;;5.38;2.38;;;16.20;99.90;;;;;;5134773;27;20039;-66
2023/07/25 00:30:05;;;;;;;8.38;2.70;;;16.10;99.90;;;;;;5112501;27;20046;-66
2023/07/25 00:32:35;;;;;;;4.10;2.53;;;16.10;99.90;;;;;;5111183;27;20039;-65
2023/07/25 00:35:02;;;;;;;6.43;2.47;;;16.00;99.90;;;;;;5134280;27;20103;-65
2023/07/25 00:37:29;;;;;;;4.90;2.35;;;16.00;99.90;;;;;;5116463;27;20047;-66
2023/07/25 00:39:57;;;;;;;5.68;2.80;;;16.00;99.90;;;;;;5122283;27;20032;-66
2023/07/25 00:42:24;;;;;;;5.72;2.20;;;16.00;99.90;;;;;;5114969;27;20035;-65
2023/07/25 00:44:51;;;;;;;;;;;16.50;99.90;;;;;;5126959;27;20044;-66
2023/07/25 00:47:19;;;;;;;4.15;2.60;;;16.00;99.90;;;;;;5134595;27;19923;-66
2023/07/25 00:49:47;;;;;;;4.50;2.63;;;16.00;99.90;;;;;;5113606;27;20041;-66
2023/07/25 00:52:14;;;;;;;4.90;2.80;;;16.00;99.90;;;;;;5131098;27;20440;-66
2023/07/25 00:54:47;;;;;;;5.15;3.05;;;15.90;99.90;;;;;;5104545;27;20058;-66
2023/07/25 00:57:18;;;;;;;4.60;2.55;;;15.90;99.90;;;;;;5115405;27;20723;-66
2023/07/25 00:59:46;;;;;;;4.35;2.72;;;16.00;99.90;;;;;;5134005;27;20063;-65
2023/07/25 01:02:14;;;;;;;4.68;2.67;;;15.80;99.90;;;;;;5126544;27;20031;-66
2023/07/25 01:04:42;;;;;;;6.30;2.75;;;15.90;99.90;;;;;;5115747;27;20051;-66
2023/07/25 01:07:13;;;;;;;6.20;2.53;;;15.80;99.90;;;;;;5108895;27;20044;-66
2023/07/25 01:09:42;;;;;;;4.07;2.47;;;15.80;99.90;;;;;;5115349;27;20051;-65
2023/07/25 01:12:10;;;;;;;5.55;2.50;;;15.70;99.90;;;;;;5115133;27;20039;-66
2023/07/25 01:14:38;;;;;;;4.78;2.67;;;15.70;99.90;;;;;;5129812;27;20400;-65
2023/07/25 01:17:13;;;;;;;7.00;3.08;;;15.60;99.90;;;;;;5122461;27;20067;-65
2023/07/25 01:19:43;;;;;;;5.57;2.63;;;15.60;99.90;;;;;;5097885;27;20396;-65
2023/07/25 01:22:11;;;;;;;4.70;2.63;;;15.60;99.90;;;;;;5114162;27;20043;-65
2023/07/25 01:24:45;;;;;;;5.57;2.50;;;15.50;99.90;;;;;;5115142;27;20047;-66
2023/07/25 01:27:16;;;;;;;8.10;2.67;;;15.60;99.90;;;;;;5123513;27;20555;-66
2023/07/25 01:29:43;;;;;;;5.97;2.58;;;15.60;99.90;;;;;;5129133;27;20039;-65
2023/07/25 01:32:11;;;;;;;7.93;2.72;;;15.60;99.90;;;;;;5113180;27;20487;-66
2023/07/25 01:34:38;;;;;;;;;;;15.60;99.90;;;;;;5114285;27;20118;-65
2023/07/25 01:37:06;;;;;;;4.68;2.97;;;15.60;99.90;;;;;;5132187;27;20387;-65
2023/07/25 01:39:33;;;;;;;3.65;2.47;;;15.60;99.90;;;;;;5113336;27;20043;-65
2023/07/25 01:42:00;;;;;;;6.28;2.80;;;15.60;99.90;;;;;;5133151;27;20065;-65
2023/07/25 01:44:27;;;;;;;6.05;3.08;;;15.60;99.90;;;;;;5113481;27;20061;-66
2023/07/25 01:46:56;;;;;;;4.20;3.00;;;15.50;99.90;;;;;;5114731;27;20050;-65
2023/07/25 01:49:23;;;;;;;4.05;2.67;;;15.50;99.90;;;;;;5123608;27;20039;-65
2023/07/25 01:51:49;;;;;;;6.95;2.83;;;15.50;99.90;;;;;;5114742;27;20047;-65
2023/07/25 01:54:16;;;;;;;6.57;2.53;;;15.50;99.90;;;;;;5104316;27;20039;-65
2023/07/25 01:56:43;;;;;;;;;;;15.60;99.90;;;;;;5133614;27;20031;-65
2023/07/25 01:59:12;;;;;;;;;;;15.60;99.90;;;;;;5122794;27;19926;-65
2023/07/25 02:01:39;;;;;;;4.20;2.70;;;15.60;99.90;;;;;;5133033;27;19919;-65
2023/07/25 02:04:06;;;;;;;3.60;2.72;;;15.60;99.90;;;;;;5113521;27;20548;-65
2023/07/25 02:06:32;;;;;;;4.13;2.45;;;15.60;99.90;;;;;;5112976;27;20506;-65
2023/07/25 02:08:59;;;;;;;4.57;2.63;;;15.60;99.90;;;;;;5122311;27;20039;-65
2023/07/25 02:11:26;;;;;;;7.68;2.75;;;15.60;99.90;;;;;;5125515;27;20039;-65
2023/07/25 02:13:53;;;;;;;4.80;2.78;;;15.60;99.90;;;;;;5112351;27;20031;-66
2023/07/25 02:16:20;;;;;;;6.55;3.17;;;15.60;99.90;;;;;;5114255;27;20043;-66
2023/07/25 02:18:46;;;;;;;5.60;3.08;;;15.60;99.90;;;;;;5090182;28;20044;-66
2023/07/25 02:21:13;;;;;;;5.15;3.17;;;15.50;99.90;;;;;;5120778;27;20142;-66
2023/07/25 02:23:40;;;;;;;7.10;3.17;;;15.50;99.90;;;;;;5112911;27;20057;-66
2023/07/25 02:26:07;;;;;;;4.85;2.65;;;15.50;99.90;;;;;;5114033;27;20138;-66
2023/07/25 02:28:34;;;;;;;5.65;2.40;;;15.50;99.90;;;;;;5112896;27;20049;-65
2023/07/25 02:31:00;;;;;;;4.72;2.75;;;15.50;99.90;;;;;;5113771;27;20043;-66
2023/07/25 02:33:27;;;;;;;5.15;2.88;;;15.50;99.90;;;;;;5132224;27;20092;-66
2023/07/25 02:35:54;;;;;;;9.50;2.50;;;15.60;99.90;;;;;;5128502;27;20062;-66
2023/07/25 02:38:21;;;;;;;4.38;2.95;;;15.60;99.90;;;;;;5126871;27;20036;-66
2023/07/25 02:40:48;;;;;;;8.05;2.92;;;15.50;99.90;;;;;;5112540;27;20047;-66
2023/07/25 02:43:14;;;;;;;7.60;3.17;;;15.80;99.90;;;;;;5112727;28;20122;-66
2023/07/25 02:45:41;;;;;;;5.93;3.03;;;15.40;99.90;;;;;;5112903;28;20037;-66
2023/07/25 02:48:08;;;;;;;5.93;3.00;;;15.30;99.90;;;;;;5113775;28;20507;-66
2023/07/25 02:50:35;;;;;;;5.38;3.22;;;15.30;99.90;;;;;;5112264;28;20380;-66
2023/07/25 02:53:02;;;;;;;5.32;3.55;;;15.30;99.90;;;;;;5113659;28;20039;-66
2023/07/25 02:55:29;;;;;;;8.10;3.08;;;15.20;99.90;;;;;;5111956;27;20050;-66
2023/07/25 02:57:56;;;;;;;14.65;3.90;;;15.20;99.90;;;;;;5105349;28;20070;-66
2023/07/25 03:00:24;;;;;;;8.88;3.72;;;15.30;99.90;;;;;;5113377;27;20053;-66
2023/07/25 03:02:51;;;;;;;4.90;3.42;;;15.20;99.90;;;;;;5131352;28;20043;-66
2023/07/25 03:05:18;;;;;;;8.90;3.63;;;15.30;99.90;;;;;;5126305;28;20027;-66
2023/07/25 03:07:44;;;;;;;6.20;2.70;;;15.30;99.90;;;;;;5110707;27;20035;-66
2023/07/25 03:10:11;;;;;;;6.20;3.53;;;15.30;99.90;;;;;;5111813;28;20047;-66
2023/07/25 03:12:38;;;;;;;6.00;3.40;;;15.20;99.90;;;;;;5130730;27;20058;-66
2023/07/25 03:15:05;;;;;;;8.60;3.53;;;15.30;99.90;;;;;;5112330;27;20096;-66
2023/07/25 03:17:32;;;;;;;;;;;15.10;99.90;;;;;;5111168;27;20477;-66
2023/07/25 03:19:59;;;;;;;5.28;3.38;;;15.10;99.90;;;;;;5132670;27;20291;-66
2023/07/25 03:22:26;;;;;;;6.25;3.25;;;15.10;99.90;;;;;;5117583;27;20043;-66
2023/07/25 03:24:52;;;;;;;7.50;3.08;;;15.20;99.90;;;;;;5127399;27;20399;-66
2023/07/25 03:27:19;;;;;;;6.10;4.00;;;15.20;99.90;;;;;;5135860;27;20053;-66
2023/07/25 03:29:46;;;;;;;5.97;3.50;;;15.30;99.90;;;;;;5112323;28;20514;-66
2023/07/25 03:32:13;;;;;;;5.68;2.92;;;15.30;99.90;;;;;;5140200;27;20380;-66
2023/07/25 03:34:40;;;;;;;6.20;3.10;;;15.30;99.90;;;;;;5146280;27;20055;-66
2023/07/25 03:37:07;;;;;;;5.53;3.17;;;15.30;99.90;;;;;;5128026;27;20489;-66
2023/07/25 03:39:34;;;;;;;6.40;3.17;;;15.20;99.90;;;;;;5144026;27;20039;-66
2023/07/25 03:42:02;;;;;;;5.47;3.13;;;15.20;99.90;;;;;;5125493;27;20146;-66
2023/07/25 03:44:29;;;;;;;5.97;2.83;;;15.20;99.90;;;;;;5106860;27;20039;-66
2023/07/25 03:46:55;;;;;;;6.43;3.45;;;15.20;99.90;;;;;;5128388;27;20049;-66
2023/07/25 03:49:22;;;;;;;7.00;3.47;;;15.10;99.90;;;;;;5111492;27;20047;-66
2023/07/25 03:51:49;;;;;;;7.80;4.35;;;15.10;99.90;;;;;;5126194;27;20039;-66
2023/07/25 03:54:17;;;;;;;6.47;3.65;;;15.20;99.90;;;;;;5130819;27;20043;-66
2023/07/25 03:56:44;;;;;;;6.28;3.60;;;15.20;99.90;;;;;;5126788;27;20034;-66
2023/07/25 03:59:11;;;;;;;7.43;3.25;;;15.20;99.90;;;;;;5122113;27;20884;-66
2023/07/25 04:01:38;;;;;;;7.35;2.90;;;15.20;99.90;;;;;;5125971;27;20080;-66
2023/07/25 04:04:05;;;;;;;6.45;3.63;;;15.10;99.90;;;;;;5123156;27;20051;-66
2023/07/25 04:06:32;;;;;;;6.90;3.45;;;15.10;99.90;;;;;;5127797;27;20126;-66
2023/07/25 04:08:58;;;;;;;5.53;3.22;;;15.10;99.90;;;;;;5138240;27;20054;-66
2023/07/25 04:11:25;;;;;;;6.35;3.38;;;15.10;99.90;;;;;;5142558;27;20373;-66
2023/07/25 04:13:52;;;;;;;7.45;3.88;;;15.20;99.90;;;;;;5143655;27;20034;-65
2023/07/25 04:16:18;;;;;;;7.40;3.60;;;15.20;99.90;;;;;;5124337;27;20043;-66
2023/07/25 04:18:45;;;;;;;10.10;3.83;;;15.20;99.90;;;;;;5120957;27;20044;-66
2023/07/25 04:21:12;;;;;;;7.25;4.03;;;15.20;99.90;;;;;;5128925;27;20043;-66
2023/07/25 04:23:39;;;;;;;6.53;3.38;;;15.10;99.90;;;;;;5112470;27;20054;-66
2023/07/25 04:26:06;;;;;;;6.65;3.55;;;15.10;99.90;;;;;;5112472;28;20050;-66
2023/07/25 04:28:33;;;;;;;6.47;3.28;;;15.10;99.90;;;;;;5116110;27;20035;-66
2023/07/25 04:31:00;;;;;;;9.35;4.30;;;15.20;99.90;;;;;;5114283;27;20039;-66
2023/07/25 04:33:27;;;;;;;10.68;4.50;;;15.20;99.90;;;;;;5112318;27;20063;-66
2023/07/25 04:35:53;;;;;;;6.05;3.40;;;15.20;99.90;;;;;;5115089;27;20047;-66
2023/07/25 04:38:20;;;;;;;5.25;3.00;;;15.20;99.90;;;;;;5114994;27;20406;-66
2023/07/25 04:40:47;;;;;;;5.30;3.45;;;15.20;99.90;;;;;;5134277;27;20053;-66
2023/07/25 04:43:14;;;;;;;8.20;3.55;;;15.20;99.90;;;;;;5113331;27;20050;-66
2023/07/25 04:45:41;;;;;;;8.77;3.13;;;15.30;99.90;;;;;;5114396;27;20652;-66
2023/07/25 04:48:08;;;;;;;5.60;3.67;;;15.30;99.90;;;;;;5115647;27;20047;-66
2023/07/25 04:50:35;;;;;;;6.68;3.58;;;15.30;99.90;;;;;;5134271;27;20046;-65
2023/07/25 04:53:03;;;;;;;6.68;3.40;;;15.30;99.90;;;;;;5131507;27;20035;-66
2023/07/25 04:55:30;;;;;;;9.73;3.55;;;15.40;99.90;;;;;;5112230;27;20130;-66
2023/07/25 04:57:57;;;;;;;5.07;3.20;;;15.40;99.90;;;;;;5110839;27;20069;-66
2023/07/25 05:00:24;;;;;;;6.78;3.45;;;15.40;99.90;;;;;;5130728;27;20047;-65
2023/07/25 05:02:50;;;;;;;5.75;3.03;;;15.40;99.90;;;;;;5127381;27;20027;-65
2023/07/25 05:05:17;;;;;;;4.60;2.72;;;15.40;99.90;;;;;;5114100;27;20067;-65
2023/07/25 05:07:44;;;;;;;6.53;3.28;;;15.40;99.90;;;;;;5127804;27;20134;-65
2023/07/25 05:10:11;;;;;;;7.13;3.28;;;15.60;99.90;;;;;;5124371;27;20476;-65
2023/07/25 05:12:37;;;;;;;5.60;3.08;;;15.50;99.90;;;;;;5114604;27;20065;-65
2023/07/25 05:15:05;;;;;;;5.57;3.20;;;15.50;99.90;;;;;;5126223;27;20408;-65
2023/07/25 05:17:32;;;;;;;4.68;2.85;;;15.50;99.90;;;;;;5129217;27;20047;-65
2023/07/25 05:19:58;;;;;;;5.25;2.60;;;15.50;99.90;;;;;;5124142;27;20096;-65
2023/07/25 05:22:25;;;;;;;5.25;3.03;;;15.60;99.90;;;;;;5124519;27;20548;-65
2023/07/25 05:24:52;;;;;;;5.53;3.10;;;15.60;99.90;;;;;;5131397;27;20496;-66
2023/07/25 05:27:19;;;;;;;5.85;2.92;;;15.60;99.90;;;;;;5131589;27;20055;-66
2023/07/25 05:29:45;;;;;;;5.15;2.70;;;15.60;99.90;;;;;;5129111;27;20031;-66
2023/07/25 05:32:12;;;;;;;4.97;2.78;;;15.60;99.90;;;;;;5127347;27;20046;-66
2023/07/25 05:34:39;;;;;;;8.52;3.30;;;15.60;99.90;;;;;;5116724;27;20031;-65
2023/07/25 05:37:06;;;;;;;4.88;2.80;;;15.60;99.90;;;;;;5132827;27;20118;-66
2023/07/25 05:39:33;;;;;;;5.68;3.28;;;15.50;99.90;;;;;;5129958;27;20450;-66
2023/07/25 05:42:00;;;;;;;5.85;2.80;;;15.60;99.90;;;;;;5133524;27;20049;-66
2023/07/25 05:44:26;;;;;;;5.72;3.53;;;15.50;99.90;;;;;;5118883;27;20044;-66
2023/07/25 05:46:53;;;;;;;4.45;2.72;;;15.50;99.90;;;;;;5110526;28;20046;-66
2023/07/25 05:49:20;;;;;;;7.13;2.75;;;15.50;99.90;;;;;;5123267;27;20494;-67
2023/07/25 05:51:47;;;;;;;5.32;3.45;;;15.50;99.90;;;;;;5115173;27;20028;-67
2023/07/25 05:54:15;;;;;;;6.63;3.80;;;15.50;99.90;;;;;;5127581;27;20070;-67
2023/07/25 05:56:42;;;;;;;6.30;3.85;;;16.00;99.90;;;;;;5114902;27;20035;-67
2023/07/25 05:59:09;;;;;;;8.48;3.95;;;15.90;99.90;;;;;;5131524;27;20419;-67
2023/07/25 06:01:38;;;;;;;8.60;4.53;;;15.60;99.90;;;;;;5121034;27;20042;-67
2023/07/25 06:04:06;;;;;;;7.25;4.78;;;15.70;99.90;;;;;;5132320;27;20129;-67
2023/07/25 06:06:32;;;;;;;7.60;5.35;;;15.70;99.90;;;;;;5128989;27;20043;-67
2023/07/25 06:08:59;;;;;;;9.13;5.68;;;15.60;99.90;;;;;;5131251;27;20042;-67
2023/07/25 06:11:27;;;;;;;100.00;10.05;;;15.60;99.90;;;;;;5132870;27;20043;-67
2023/07/25 06:13:54;;;;;;;13.35;5.30;;;15.60;99.90;;;;;;5128068;27;20068;-67
2023/07/25 06:16:21;;;;;;;10.10;5.03;;;15.60;99.90;;;;;;5132046;27;20047;-66
2023/07/25 06:18:48;;;;;;;8.43;4.72;;;15.60;99.90;;;;;;5124573;27;20031;-67
2023/07/25 06:21:15;;;;;;;6.68;5.03;;;15.50;99.90;;;;;;5132267;27;20035;-67
2023/07/25 06:23:42;;;;;;;24.17;10.50;;;15.50;99.90;;;;;;5131662;27;20031;-67
2023/07/25 06:26:09;;;;;;;14.13;7.57;;;15.70;99.90;;;;;;5124785;27;20050;-67
2023/07/25 06:28:35;;;;;;;6.95;4.88;;;15.80;99.90;;;;;;5131055;27;20053;-67
2023/07/25 06:31:02;;;;;;;6.15;3.75;;;15.90;99.90;;;;;;5131489;27;20216;-67
2023/07/25 06:33:29;;;;;;;5.03;3.38;;;16.00;99.90;;;;;;5131809;27;20100;-67
2023/07/25 06:35:56;;;;;;;8.50;3.47;;;16.10;99.90;;;;;;5123505;27;20053;-67
2023/07/25 06:38:23;;;;;;;9.43;5.05;;;16.10;99.90;;;;;;5131748;27;20039;-67
2023/07/25 06:40:50;;;;;;;7.57;4.85;;;16.30;99.90;;;;;;5112198;27;20036;-67
2023/07/25 06:43:16;;;;;;;8.38;5.40;;;16.40;99.90;;;;;;5113443;28;20408;-67
2023/07/25 06:45:44;;;;;;;7.13;4.80;;;16.40;99.90;;;;;;5112115;28;20035;-67
2023/07/25 06:48:11;;;;;;;9.98;5.50;;;16.50;99.90;;;;;;5132006;27;20399;-67
2023/07/25 06:50:37;;;;;;;9.00;5.28;;;16.70;99.90;;;;;;5124398;28;20039;-67
2023/07/25 06:53:04;;;;;;;8.05;4.97;;;16.70;99.90;;;;;;5131433;27;20479;-67
2023/07/25 06:55:31;;;;;;;7.07;5.22;;;16.90;99.90;;;;;;5130584;28;20047;-67
2023/07/25 06:57:57;;;;;;;7.40;4.15;;;17.00;99.90;;;;;;5131623;27;20047;-67
2023/07/25 07:00:24;;;;;;;5.47;4.05;;;17.30;99.90;;;;;;5129034;28;20028;-67
2023/07/25 07:02:51;;;;;;;6.43;4.57;;;17.30;99.90;;;;;;5131342;28;20484;-67
2023/07/25 07:05:18;;;;;;;5.93;4.57;;;17.40;99.90;;;;;;5131587;27;20437;-67
2023/07/25 07:07:56;;;;;;;7.72;4.90;;;17.50;99.90;;;;;;5119632;28;20050;-67
2023/07/25 07:10:23;;;;;;;6.20;4.75;;;17.60;99.90;;;;;;5128013;28;20047;-67
2023/07/25 07:12:50;;;;;;;6.97;4.80;;;18.20;99.90;;;;;;5131615;27;20350;-66
2023/07/25 07:15:17;;;;;;;7.80;5.80;;;17.20;99.90;;;;;;5132058;28;20439;-67
2023/07/25 07:17:44;;;;;;;10.25;5.32;;;16.90;99.90;;;;;;5127045;27;20035;-67
2023/07/25 07:20:11;;;;;;;7.50;4.97;;;16.80;99.90;;;;;;5131492;27;20118;-67
2023/07/25 07:22:38;;;;;;;6.13;3.88;;;16.80;99.90;;;;;;5131027;28;20043;-67
2023/07/25 07:25:06;;;;;;;5.82;4.10;;;16.70;99.90;;;;;;5131551;28;20039;-67
2023/07/25 07:27:34;;;;;;;4.97;3.42;;;16.70;99.90;;;;;;5118051;27;20119;-67
2023/07/25 07:30:02;;;;;;;3.78;2.90;;;16.60;99.90;;;;;;5130380;27;20046;-67
2023/07/25 07:32:29;;;;;;;4.60;3.25;;;16.50;99.90;;;;;;5112796;28;20054;-67
2023/07/25 07:34:56;;;;;;;5.47;4.00;;;16.50;99.90;;;;;;5110759;28;20514;-67
2023/07/25 07:37:22;;;;;;;8.13;3.60;;;16.40;99.90;;;;;;5124606;27;20048;-67
2023/07/25 07:39:49;;;;;;;8.05;3.95;;;16.40;99.90;;;;;;5123274;28;20114;-66
2023/07/25 07:42:16;;;;;;;7.25;4.22;;;16.40;99.90;;;;;;5129549;28;20407;-67
2023/07/25 07:44:43;;;;;;;7.70;3.67;;;16.40;99.90;;;;;;5116956;27;20495;-66
2023/07/25 07:47:09;;;;;;;7.07;4.90;;;16.40;99.90;;;;;;5109006;28;20043;-67
2023/07/25 07:49:36;;;;;;;6.70;3.42;;;16.40;99.90;;;;;;5127106;27;20050;-67
2023/07/25 07:52:03;;;;;;;6.10;3.42;;;16.40;99.90;;;;;;5131608;28;20046;-67
2023/07/25 07:54:45;;;;;;;5.13;2.90;;;16.50;99.90;;;;;;5122949;27;20130;-67
2023/07/25 07:57:12;;;;;;;4.85;2.97;;;16.60;99.90;;;;;;5131762;28;20049;-66
2023/07/25 07:59:41;;;;;;;4.20;2.90;;;16.70;99.90;;;;;;5124089;27;20043;-67
2023/07/25 08:02:08;;;;;;;5.82;3.15;;;16.70;99.90;;;;;;5125011;27;20040;-67
2023/07/25 08:04:35;;;;;;;5.85;3.95;;;16.80;99.90;;;;;;5128481;27;20067;-67
2023/07/25 08:07:02;;;;;;;7.95;4.60;;;16.90;99.90;;;;;;5134766;27;20043;-67
2023/07/25 08:09:29;;;;;;;7.65;5.18;;;16.90;99.90;;;;;;5131508;27;20096;-66
2023/07/25 08:11:55;;;;;;;11.40;4.70;;;16.90;99.90;;;;;;5135332;27;20043;-66
2023/07/25 08:14:22;;;;;;;7.55;4.80;;;16.80;99.90;;;;;;5116183;27;20039;-66
2023/07/25 08:16:50;;;;;;;6.22;4.38;;;16.90;99.90;;;;;;5126635;27;20035;-67
2023/07/25 08:19:16;;;;;;;7.18;4.88;;;16.90;99.90;;;;;;5134740;27;20096;-67
2023/07/25 08:21:43;;;;;;;5.63;4.30;;;16.90;99.90;;;;;;5134899;27;20043;-67
2023/07/25 08:24:10;;;;;;;9.00;4.68;;;16.90;99.90;;;;;;5124689;27;20051;-67
2023/07/25 08:26:37;;;;;;;9.13;4.45;;;17.10;99.90;;;;;;5132627;27;20039;-67
2023/07/25 08:29:03;;;;;;;4.75;3.85;;;17.10;99.90;;;;;;5129395;27;20057;-67
2023/07/25 08:31:30;;;;;;;9.65;4.57;;;17.20;99.90;;;;;;5129813;27;20464;-67
2023/07/25 08:33:57;;;;;;;9.45;4.03;;;17.30;99.90;;;;;;5132517;27;20039;-67
2023/07/25 08:36:24;;;;;;;6.03;4.07;;;17.30;99.90;;;;;;5119428;27;20133;-67
2023/07/25 08:38:51;;;;;;;6.80;4.07;;;17.40;99.90;;;;;;5132071;27;20079;-67
2023/07/25 08:41:26;;;;;;;6.30;4.20;;;17.40;99.90;;;;;;5127881;27;20039;-67
2023/07/25 08:43:54;;;;;;;5.60;3.75;;;17.50;99.90;;;;;;5132668;27;20057;-67
2023/07/25 08:46:25;;;;;;;5.07;3.50;;;17.50;99.90;;;;;;5134158;27;20096;-67
2023/07/25 08:48:58;;;;;;;5.65;3.30;;;17.70;99.90;;;;;;5134272;27;20110;-67
2023/07/25 08:51:28;;;;;;;7.72;4.10;;;17.80;99.90;;;;;;5109479;28;20054;-67
2023/07/25 08:54:18;;;;;;;5.00;3.00;;;17.90;99.90;;;;;;5134193;27;20494;-67
2023/07/25 08:56:48;;;;;;;6.43;3.22;;;18.00;99.90;;;;;;5132936;27;20039;-67
2023/07/25 08:59:16;;;;;;;5.70;3.40;;;18.00;99.90;;;;;;5131370;27;20039;-67
2023/07/25 09:01:43;;;;;;;4.22;3.30;;;18.10;99.90;;;;;;5134125;27;20043;-67
2023/07/25 09:04:11;;;;;;;9.32;3.97;;;18.20;99.90;;;;;;5128279;27;20075;-67
2023/07/25 09:06:38;;;;;;;6.88;3.95;;;18.20;99.90;;;;;;5126120;27;20038;-67
2023/07/25 09:09:05;;;;;;;6.50;4.00;;;18.10;99.90;;;;;;5119156;27;20043;-67
2023/07/25 09:11:33;;;;;;;8.20;3.88;;;18.00;99.90;;;;;;5133858;27;20043;-67
2023/07/25 09:14:01;;;;;;;7.32;3.47;;;17.80;99.90;;;;;;5126947;27;20091;-67
2023/07/25 09:16:29;;;;;;;5.10;3.85;;;17.70;99.90;;;;;;5113954;27;20297;-67
2023/07/25 09:18:57;;;;;;;6.47;3.72;;;17.60;99.90;;;;;;5133075;27;20043;-67
2023/07/25 09:21:23;;;;;;;5.78;4.07;;;17.60;99.90;;;;;;5133813;27;20046;-67
2023/07/25 09:23:57;;;;;;;7.65;4.13;;;17.50;99.90;;;;;;5126895;27;20051;-67
2023/07/25 09:26:26;;;;;;;5.93;4.28;;;17.50;99.90;;;;;;5115277;27;20051;-67
2023/07/25 09:28:56;;;;;;;5.75;4.05;;;17.40;99.90;;;;;;5133057;27;20131;-67
2023/07/25 09:31:27;;;;;;;5.75;4.05;;;17.40;99.90;;;;;;5133841;27;20043;-66
2023/07/25 09:33:55;;;;;;;5.93;4.00;;;17.40;99.90;;;;;;5121320;27;20146;-67
2023/07/25 09:36:22;;;;;;;5.32;3.47;;;17.40;99.90;;;;;;5128161;27;20720;-67
2023/07/25 09:38:54;;;;;;;;;;;17.40;99.90;;;;;;5118960;27;20123;-67
2023/07/25 09:41:23;;;;;;;5.30;3.03;;;17.40;99.90;;;;;;5131980;27;19998;-67
2023/07/25 09:43:51;;;;;;;7.32;2.88;;;17.30;99.90;;;;;;5128042;27;20115;-67
2023/07/25 09:46:18;;;;;;;3.58;2.40;;;17.20;99.90;;;;;;5130271;27;20048;-67
2023/07/25 09:48:50;;;;;;;4.78;2.55;;;17.40;99.90;;;;;;5122249;27;20418;-67
2023/07/25 09:51:17;;;;;;;3.38;2.28;;;17.50;99.90;;;;;;5132679;27;20433;-67
2023/07/25 09:53:49;;;;;;;3.22;2.35;;;18.00;99.90;;;;;;5133122;27;20035;-67
2023/07/25 09:56:16;;;;;;;5.03;2.03;;;17.60;99.90;;;;;;5129184;27;20110;-67
2023/07/25 09:58:42;;;;;;;3.38;2.20;;;17.60;99.90;;;;;;5132949;27;20043;-67
2023/07/25 10:01:31;;;;;;;4.80;2.10;;;17.60;99.90;;;;;;5131941;27;20039;-67
2023/07/25 10:03:58;;;;;;;3.70;2.28;;;17.40;99.90;;;;;;5112651;27;20035;-67
2023/07/25 10:06:25;;;;;;;4.03;1.95;;;17.30;99.90;;;;;;5123658;27;20039;-67
2023/07/25 10:08:53;;;;;;;2.83;1.77;;;17.10;99.90;;;;;;5132527;27;20398;-66
2023/07/25 10:11:22;;;;;;;3.45;2.20;;;17.10;99.90;;;;;;5131215;27;20035;-67
2023/07/25 10:13:51;;;;;;;4.35;2.40;;;17.10;99.90;;;;;;5125743;27;20035;-67
2023/07/25 10:16:20;;;;;;;5.35;2.33;;;17.10;99.90;;;;;;5132188;27;20043;-67
2023/07/25 10:18:54;;;;;;;5.45;2.13;;;17.10;99.90;;;;;;5126971;27;20043;-67
2023/07/25 10:21:26;;;;;;;3.65;2.03;;;17.00;99.90;;;;;;5114266;27;20045;-67
2023/07/25 10:24:00;;;;;;;4.45;1.90;;;16.80;99.90;;;;;;5121763;27;20036;-67
2023/07/25 10:26:27;;;;;;;2.67;2.10;;;16.90;99.90;;;;;;5127713;27;20057;-67
2023/07/25 10:28:54;;;;;;;4.43;2.28;;;16.80;99.90;;;;;;5130565;27;20031;-67
2023/07/25 10:31:23;;;;;;;3.65;2.42;;;16.70;99.90;;;;;;5132278;27;20039;-67
2023/07/25 10:33:54;;;;;;;3.58;2.38;;;16.70;99.90;;;;;;5131031;27;20027;-67
2023/07/25 10:36:23;;;;;;;3.55;2.17;;;16.70;99.90;;;;;;5119782;27;20376;-67
2023/07/25 10:38:52;;;;;;;4.63;3.20;;;16.70;99.90;;;;;;5121477;27;20051;-67
2023/07/25 10:41:20;;;;;;;4.80;2.45;;;16.90;99.90;;;;;;5130244;27;20047;-67
2023/07/25 10:43:55;;;;;;;4.25;2.30;;;16.70;99.90;;;;;;5129524;27;20118;-67
2023/07/25 10:46:26;;;;;;;3.25;2.10;;;16.60;99.90;;;;;;5131823;27;20488;-67
2023/07/25 10:48:55;;;;;;;3.80;2.22;;;16.50;99.90;;;;;;5132136;28;20042;-67
2023/07/25 10:51:23;;;;;;;3.35;2.25;;;16.40;99.90;;;;;;5127422;27;20100;-67
2023/07/25 10:54:08;;;;;;;3.40;2.20;;;16.40;99.90;;;;;;5125744;27;20541;-67
2023/07/25 10:56:39;;;;;;;3.05;1.85;;;16.40;99.90;;;;;;5128183;27;20043;-67
2023/07/25 10:59:11;;;;;;;2.80;1.52;;;16.30;99.90;;;;;;5127004;27;20050;-67
2023/07/25 11:01:46;;;;;;;3.83;2.53;;;16.20;99.90;;;;;;5128039;27;20368;-67
2023/07/25 11:04:31;;;;;;;4.72;2.08;;;16.20;99.90;;;;;;5124368;28;20494;-67
2023/07/25 11:07:09;;;;;;;5.70;1.90;;;16.30;99.90;;;;;;5129486;28;20050;-66
2023/07/25 11:09:43;;;;;;;;;;;16.20;99.90;;;;;;5127836;28;20126;-67
2023/07/25 11:12:11;;;;;;;2.80;1.83;;;16.30;99.90;;;;;;5131849;27;20416;-66
2023/07/25 11:14:42;;;;;;;4.55;2.10;;;16.40;99.90;;;;;;5129718;28;20155;-67
2023/07/25 11:17:12;;;;;;;3.20;1.95;;;16.50;99.90;;;;;;5121930;27;20506;-67
2023/07/25 11:19:40;;;;;;;2.92;1.83;;;16.50;99.90;;;;;;5120860;27;20041;-66
2023/07/25 11:22:10;;;;;;;4.28;1.90;;;16.60;99.90;;;;;;5131439;27;20402;-67
2023/07/25 11:24:44;;;;;;;3.55;1.83;;;16.90;99.90;;;;;;5116424;27;20036;-66
2023/07/25 11:27:12;;;;;;;3.58;1.98;;;17.10;99.90;;;;;;5121974;27;20042;-66
2023/07/25 11:29:38;;;;;;;;;;;17.30;99.90;;;;;;5132124;27;20054;-66
2023/07/25 11:32:06;;;;;;;3.08;1.83;;;17.30;99.90;;;;;;5122498;27;19926;-66
2023/07/25 11:34:33;;;;;;;3.30;2.05;;;17.30;99.90;;;;;;5127893;27;20494;-66
2023/07/25 11:36:59;;;;;;;4.28;2.28;;;17.20;99.90;;;;;;5126845;27;20060;-66
2023/07/25 11:39:26;;;;;;;4.00;2.42;;;17.10;99.90;;;;;;5116647;27;20043;-66
2023/07/25 11:41:54;;;;;;;4.88;2.65;;;17.00;99.90;;;;;;5135526;27;20066;-66
2023/07/25 11:44:22;;;;;;;5.55;2.25;;;16.70;99.90;;;;;;5131986;27;20472;-66
2023/07/25 11:46:55;;;;;;;3.28;2.17;;;16.50;99.90;;;;;;5106610;27;20048;-66
2023/07/25 11:49:22;;;;;;;4.85;2.42;;;16.40;99.90;;;;;;5134190;27;20039;-66
2023/07/25 11:52:09;;;;;;;5.15;2.58;;;16.50;99.90;;;;;;5127182;27;20615;-66
2023/07/25 11:54:37;;;;;;;3.67;2.17;;;16.60;99.90;;;;;;5135119;27;20118;-67
2023/07/25 11:57:06;;;;;;;;;;;16.60;99.90;;;;;;5117471;27;20054;-66
2023/07/25 11:59:39;;;;;;;3.53;1.58;;;16.70;99.90;;;;;;5131023;27;20759;-66
2023/07/25 12:02:06;;;;;;;3.20;1.60;;;16.90;99.90;;;;;;5131256;27;20575;-66
2023/07/25 12:04:42;;;;;;;5.53;2.00;;;17.10;99.90;;;;;;5129460;27;20050;-66
2023/07/25 12:07:09;;;;;;;5.65;2.22;;;17.10;99.90;;;;;;5132156;27;20054;-66
2023/07/25 12:09:36;;;;;;;3.42;1.77;;;17.00;99.90;;;;;;5130761;27;20039;-66
2023/07/25 12:12:11;;;;;;;3.33;1.63;;;17.00;99.90;;;;;;5134373;27;20043;-66
2023/07/25 12:14:37;;;;;;;1.88;1.38;;;17.10;99.90;;;;;;5114751;27;20043;-66
2023/07/25 12:17:04;;;;;;;2.78;1.90;;;17.20;99.90;;;;;;5133048;27;20043;-66
2023/07/25 12:19:32;;;;;;;2.17;1.60;;;17.60;99.90;;;;;;5129897;27;20039;-67
2023/07/25 12:22:07;;;;;;;3.13;2.10;;;17.90;99.90;;;;;;5133191;27;20550;-66
2023/07/25 12:24:40;;;;;;;3.40;1.98;;;18.20;99.90;;;;;;5129788;27;20078;-66
2023/07/25 12:27:18;;;;;;;2.17;1.65;;;18.40;99.90;;;;;;5134920;27;20035;-66
2023/07/25 12:29:45;;;;;;;2.95;1.60;;;18.60;99.90;;;;;;5133029;27;20068;-66
2023/07/25 12:32:13;;;;;;;3.55;1.40;;;18.80;99.90;;;;;;5134912;27;20118;-66
2023/07/25 12:34:40;;;;;;;2.20;1.60;;;18.80;99.90;;;;;;5129616;27;20121;-66
2023/07/25 12:37:06;;;;;;;2.35;1.48;;;18.70;99.90;;;;;;5134897;27;20041;-67
2023/07/25 12:39:33;;;;;;;1.77;1.60;;;18.80;99.90;;;;;;5132299;27;20495;-66
2023/07/25 12:42:00;;;;;;;3.03;1.75;;;19.00;99.90;;;;;;5126172;27;20054;-66
2023/07/25 12:44:27;;;;;;;3.03;1.60;;;19.20;99.90;;;;;;5130824;27;20043;-67
2023/07/25 12:46:53;;;;;;;2.90;1.75;;;19.20;99.90;;;;;;5126325;27;20127;-66
2023/07/25 12:49:20;;;;;;;3.10;1.70;;;19.40;99.90;;;;;;5134164;27;20049;-67
2023/07/25 12:51:47;;;;;;;4.70;1.80;;;19.50;99.90;;;;;;5125202;27;20592;-66